Time;durP1;ratioP1;P1;durP2;ratioP2;P2;SDS_P1;SDS_P2;PMS_P1;PMS_P2;Temp;Humidity;BMP_temperature;BMP_pressure;BME280_temperature;BME280_humidity;BME280_pressure;Samples;Min_cycle;Max_cycle;Signal;HPM_P1;HPM_P2
2023/02/04 00:00:15;;;;;;;27.30;10.80;;;;;;;-0.91;100.00;97921.75;107015;1274;26578;-69
2023/02/04 00:02:43;;;;;;;28.20;11.80;;;;;;;-0.91;100.00;97912.39;107103;1274;25402;-71
2023/02/04 00:05:10;;;;;;;27.70;11.10;;;;;;;-0.90;100.00;97908.90;107088;1274;22522;-67
2023/02/04 00:07:38;;;;;;;26.70;11.40;;;;;;;-0.89;100.00;97898.34;107045;1274;25358;-69
2023/02/04 00:10:08;;;;;;;37.10;14.60;;;;;;;-0.87;100.00;97889.54;106406;1274;1003053;-68
2023/02/04 00:12:35;;;;;;;34.30;16.00;;;;;;;-0.86;100.00;97884.67;106884;1275;25358;-69
2023/02/04 00:15:04;;;;;;;28.00;13.20;;;;;;;-0.86;100.00;97872.13;107064;1274;25269;-68
2023/02/04 00:17:31;;;;;;;33.60;14.30;;;;;;;-0.87;100.00;97866.69;107063;1275;25372;-68
2023/02/04 00:19:59;;;;;;;34.50;13.20;;;;;;;-0.86;100.00;97861.13;107052;1274;25279;-70
2023/02/04 00:22:27;;;;;;;30.70;12.30;;;;;;;-0.86;100.00;97856.19;107059;1274;25252;-69
2023/02/04 00:24:55;;;;;;;40.00;14.10;;;;;;;-0.85;100.00;97845.12;106905;1275;25360;-68
2023/02/04 00:27:23;;;;;;;40.80;14.70;;;;;;;-0.84;100.00;97840.79;107065;1274;26574;-69
2023/02/04 00:29:50;;;;;;;36.70;14.50;;;;;;;-0.82;100.00;97829.23;106965;1275;25348;-69
2023/02/04 00:32:18;;;;;;;34.00;12.70;;;;;;;-0.82;100.00;97825.87;107046;1275;25358;-69
2023/02/04 00:34:46;;;;;;;31.10;13.30;;;;;;;-0.83;100.00;97821.00;109038;1275;22588;-68
2023/02/04 00:37:13;;;;;;;32.30;14.20;;;;;;;-0.83;100.00;97817.67;108376;1275;25369;-68
2023/02/04 00:39:41;;;;;;;28.40;13.10;;;;;;;-0.84;100.00;97815.08;107138;1275;24289;-68
2023/02/04 00:42:08;;;;;;;29.70;13.00;;;;;;;-0.84;100.00;97812.86;106963;1275;23919;-68
2023/02/04 00:44:36;;;;;;;25.70;11.20;;;;;;;-0.85;100.00;97807.08;107075;1275;25451;-68
2023/02/04 00:47:03;;;;;;;27.40;12.70;;;;;;;-0.86;100.00;97801.36;107017;1274;24410;-70
2023/02/04 00:49:32;;;;;;;30.80;14.30;;;;;;;-0.89;100.00;97799.84;106892;1275;25437;-68
2023/02/04 00:52:00;;;;;;;28.70;12.30;;;;;;;-0.89;100.00;97792.27;106957;1275;26698;-68
2023/02/04 00:54:27;;;;;;;33.30;12.90;;;;;;;-0.89;100.00;97788.77;106871;1274;22529;-69
2023/02/04 00:56:54;;;;;;;42.40;15.90;;;;;;;-0.89;100.00;97785.21;106869;1275;22588;-68
2023/02/04 00:59:22;;;;;;;39.80;15.20;;;;;;;-0.91;100.00;97780.47;107019;1274;25281;-69
2023/02/04 01:01:50;;;;;;;38.70;13.60;;;;;;;-0.92;100.00;97776.30;107053;1275;24025;-70
2023/02/04 01:04:18;;;;;;;42.10;15.90;;;;;;;-0.94;100.00;97770.09;107053;1275;26646;-69
2023/02/04 01:06:46;;;;;;;45.10;15.90;;;;;;;-0.95;100.00;97762.09;106368;1274;1003330;-68
2023/02/04 01:09:13;;;;;;;38.20;14.60;;;;;;;-0.96;100.00;97760.77;107035;1275;25366;-68
2023/02/04 01:11:43;;;;;;;37.20;14.90;;;;;;;-0.96;100.00;97756.34;106834;1274;25528;-68
2023/02/04 01:14:11;;;;;;;33.30;14.80;;;;;;;-0.95;100.00;97753.23;107043;1275;26516;-67
2023/02/04 01:16:39;;;;;;;30.40;13.30;;;;;;;-0.95;100.00;97746.31;106316;1274;1003369;-69
2023/02/04 01:19:06;;;;;;;27.60;12.90;;;;;;;-0.95;100.00;97741.42;107089;1274;25252;-70
2023/02/04 01:21:33;;;;;;;32.40;12.90;;;;;;;-0.97;100.00;97743.34;107071;1274;25297;-69
2023/02/04 01:24:01;;;;;;;26.20;11.70;;;;;;;-0.99;100.00;97740.35;107080;1275;25304;-69
2023/02/04 01:26:29;;;;;;;31.30;13.80;;;;;;;-0.99;100.00;97741.67;107076;1275;24232;-68
2023/02/04 01:28:56;;;;;;;27.90;12.20;;;;;;;-1.01;100.00;97739.55;106953;1275;25253;-67
2023/02/04 01:31:24;;;;;;;29.20;12.40;;;;;;;-1.02;100.00;97741.60;107039;1274;22523;-68
2023/02/04 01:33:52;;;;;;;31.30;11.70;;;;;;;-1.06;100.00;97740.02;107040;1275;23763;-67
2023/02/04 01:36:20;;;;;;;29.20;11.00;;;;;;;-1.12;100.00;97735.66;107058;1275;25438;-68
2023/02/04 01:38:48;;;;;;;29.20;12.00;;;;;;;-1.16;100.00;97731.45;107076;1275;26561;-67
2023/02/04 01:41:16;;;;;;;25.30;11.50;;;;;;;-1.18;100.00;97730.05;107116;1275;22514;-68
2023/02/04 01:43:45;;;;;;;27.60;11.10;;;;;;;-1.19;100.00;97728.08;106243;1275;1002923;-67
2023/02/04 01:46:12;;;;;;;26.40;10.80;;;;;;;-1.21;100.00;97725.97;106192;1275;1016199;-67
2023/02/04 01:48:40;;;;;;;25.90;10.50;;;;;;;-1.23;100.00;97728.30;106288;1275;1003147;-69
2023/02/04 01:51:09;;;;;;;27.70;11.40;;;;;;;-1.25;100.00;97721.71;106919;1274;25375;-68
2023/02/04 01:53:37;;;;;;;23.10;10.20;;;;;;;-1.23;100.00;97716.48;107075;1275;22530;-68
2023/02/04 01:56:18;;;;;;;23.90;9.80;;;;;;;-1.24;100.00;97713.83;106320;1275;1003028;-68
2023/02/04 01:58:46;;;;;;;20.30;9.40;;;;;;;-1.24;100.00;97697.64;106995;1275;25474;-68
2023/02/04 02:01:33;;;;;;;23.80;10.00;;;;;;;-1.26;100.00;97704.72;106971;1274;25382;-70
2023/02/04 02:04:00;;;;;;;25.40;10.50;;;;;;;-1.28;100.00;97684.75;107109;1275;25456;-68
2023/02/04 02:06:28;;;;;;;23.10;9.80;;;;;;;-1.27;100.00;97686.62;107030;1275;25423;-67
2023/02/04 02:08:57;;;;;;;24.50;10.00;;;;;;;-1.27;100.00;97686.98;107081;1275;25454;-68
2023/02/04 02:11:25;;;;;;;24.00;9.80;;;;;;;-1.28;100.00;97682.42;107048;1274;25499;-67
2023/02/04 02:13:53;;;;;;;21.90;8.90;;;;;;;-1.28;100.00;97673.42;107049;1275;25234;-68
2023/02/04 02:16:21;;;;;;;25.20;9.80;;;;;;;-1.27;100.00;97666.84;107010;1275;25377;-68
2023/02/04 02:18:48;;;;;;;23.30;10.50;;;;;;;-1.28;100.00;97662.52;106868;1275;24362;-67
2023/02/04 02:21:16;;;;;;;20.40;9.20;;;;;;;-1.29;100.00;97661.58;107101;1275;25377;-68
2023/02/04 02:23:47;;;;;;;20.90;8.80;;;;;;;-1.31;100.00;97657.49;107104;1275;25426;-67
2023/02/04 02:26:15;;;;;;;22.70;9.20;;;;;;;-1.32;100.00;97652.95;107173;1275;25274;-69
2023/02/04 02:28:43;;;;;;;24.20;10.40;;;;;;;-1.33;100.00;97649.17;106999;1275;231940;-69
2023/02/04 02:31:11;;;;;;;24.60;10.00;;;;;;;-1.35;100.00;97646.33;107042;1275;25428;-67
2023/02/04 02:33:38;;;;;;;22.50;8.80;;;;;;;-1.36;100.00;97644.67;106922;1275;25545;-67
2023/02/04 02:36:06;;;;;;;22.10;8.80;;;;;;;-1.35;100.00;97637.73;106993;1275;25508;-67
2023/02/04 02:38:34;;;;;;;23.50;10.00;;;;;;;-1.32;100.00;97630.39;106166;1275;1003223;-67
2023/02/04 02:41:02;;;;;;;19.00;8.80;;;;;;;-1.33;100.00;97627.94;107035;1274;23812;-67
2023/02/04 02:43:30;;;;;;;21.50;8.70;;;;;;;-1.31;100.00;97622.33;107049;1275;25307;-68
2023/02/04 02:45:58;;;;;;;21.70;8.80;;;;;;;-1.30;100.00;97618.36;106230;1275;1003807;-68
2023/02/04 02:48:25;;;;;;;24.00;8.60;;;;;;;-1.30;100.00;97612.30;107049;1275;22468;-69
2023/02/04 02:50:52;;;;;;;23.30;9.00;;;;;;;-1.29;100.00;97606.20;106237;1274;1002843;-68
2023/02/04 02:53:20;;;;;;;20.70;8.30;;;;;;;-1.29;100.00;97602.29;106792;1275;22730;-66
2023/02/04 02:55:48;;;;;;;22.90;9.00;;;;;;;-1.30;100.00;97590.38;106931;1275;25256;-68
2023/02/04 02:58:31;;;;;;;21.50;8.90;;;;;;;-1.31;100.00;97586.96;106928;1275;25278;-67
2023/02/04 03:01:00;;;;;;;23.40;9.40;;;;;;;-1.33;100.00;97576.34;106945;1275;22530;-67
2023/02/04 03:03:30;;;;;;;22.20;10.60;;;;;;;-1.32;100.00;97592.91;107048;1274;23458;-67
2023/02/04 03:06:15;;;;;;;21.40;9.00;;;;;;;-1.31;100.00;97582.75;106906;1275;22526;-68
2023/02/04 03:08:43;;;;;;;23.90;9.20;;;;;;;-1.32;100.00;97569.36;107103;1275;25239;-69
2023/02/04 03:11:14;;;;;;;26.60;9.50;;;;;;;-1.32;100.00;97569.55;109378;1275;24126;-66
2023/02/04 03:13:44;;;;;;;26.40;10.90;;;;;;;-1.31;100.00;97570.30;107256;1275;25502;-68
2023/02/04 03:16:11;;;;;;;23.80;9.30;;;;;;;-1.29;100.00;97564.66;107021;1275;25246;-68
2023/02/04 03:18:38;;;;;;;21.50;9.30;;;;;;;-1.28;100.00;97563.55;107016;1275;25524;-66
2023/02/04 03:21:06;;;;;;;21.80;9.50;;;;;;;-1.27;100.00;97560.40;106705;1275;25333;-67
2023/02/04 03:23:33;;;;;;;18.90;8.10;;;;;;;-1.25;100.00;97555.19;106605;1274;25354;-68
2023/02/04 03:26:03;;;;;;;19.20;8.40;;;;;;;-1.22;100.00;97549.48;106977;1275;22609;-68
2023/02/04 03:28:31;;;;;;;18.90;8.10;;;;;;;-1.22;100.00;97548.71;107003;1275;25253;-68
2023/02/04 03:30:59;;;;;;;19.20;7.30;;;;;;;-1.20;100.00;97542.18;107002;1275;25307;-68
2023/02/04 03:33:30;;;;;;;16.70;6.70;;;;;;;-1.19;100.00;97535.86;107047;1275;25488;-68
2023/02/04 03:35:57;;;;;;;17.70;7.50;;;;;;;-1.18;100.00;97530.14;107001;1275;25345;-68
2023/02/04 03:38:25;;;;;;;19.60;7.60;;;;;;;-1.18;100.00;97524.98;107080;1275;25433;-68
2023/02/04 03:40:52;;;;;;;20.10;8.00;;;;;;;-1.17;100.00;97521.37;107059;1274;22538;-67
2023/02/04 03:43:20;;;;;;;18.10;6.40;;;;;;;-1.18;100.00;97519.27;107067;1274;25429;-67
2023/02/04 03:45:47;;;;;;;12.10;5.30;;;;;;;-1.19;100.00;97518.33;107085;1274;25244;-68
2023/02/04 03:48:14;;;;;;;10.50;4.80;;;;;;;-1.20;100.00;97518.11;106188;1275;1003709;-67
2023/02/04 03:50:42;;;;;;;10.30;4.10;;;;;;;-1.22;100.00;97516.77;107075;1275;26528;-67
2023/02/04 03:53:09;;;;;;;6.20;3.60;;;;;;;-1.26;100.00;97516.96;106096;1274;1004208;-68
2023/02/04 03:55:36;;;;;;;5.70;3.60;;;;;;;-1.30;100.00;97512.77;106986;1275;25247;-68
2023/02/04 03:58:04;;;;;;;9.20;3.90;;;;;;;-1.32;100.00;97514.38;106891;1274;25249;-68
2023/02/04 04:00:32;;;;;;;4.20;3.30;;;;;;;-1.35;100.00;97510.27;107002;1275;23206;-68
2023/02/04 04:03:00;;;;;;;4.60;3.50;;;;;;;-1.38;100.00;97509.64;107102;1274;25274;-67
2023/02/04 04:05:27;;;;;;;4.10;3.40;;;;;;;-1.41;100.00;97511.61;107033;1274;24418;-68
2023/02/04 04:07:54;;;;;;;7.00;4.10;;;;;;;-1.45;100.00;97510.96;106997;1274;23874;-69
2023/02/04 04:10:22;;;;;;;4.60;3.70;;;;;;;-1.47;100.00;97515.42;107070;1275;25258;-68
2023/02/04 04:12:49;;;;;;;6.40;3.90;;;;;;;-1.51;100.00;97519.02;106307;1274;1003189;-67
2023/02/04 04:15:17;;;;;;;7.20;4.30;;;;;;;-1.55;100.00;97524.52;106339;1275;1002817;-69
2023/02/04 04:17:44;;;;;;;8.30;4.60;;;;;;;-1.57;100.00;97523.35;107042;1274;25373;-71
2023/02/04 04:20:11;;;;;;;8.60;4.30;;;;;;;-1.60;100.00;97522.04;107002;1275;22563;-67
2023/02/04 04:22:39;;;;;;;7.70;4.30;;;;;;;-1.61;100.00;97519.84;106976;1275;25382;-67
2023/02/04 04:25:07;;;;;;;10.10;5.10;;;;;;;-1.63;100.00;97525.83;106277;1275;1003459;-68
2023/02/04 04:27:34;;;;;;;7.90;4.30;;;;;;;-1.65;100.00;97542.11;107082;1274;25363;-68
2023/02/04 04:30:02;;;;;;;9.90;4.70;;;;;;;-1.67;100.00;97543.59;106988;1275;24375;-68
2023/02/04 04:32:30;;;;;;;10.00;5.50;;;;;;;-1.68;100.00;97544.44;106908;1275;22872;-68
2023/02/04 04:34:58;;;;;;;6.60;4.20;;;;;;;-1.71;100.00;97542.92;106259;1274;1003628;-68
2023/02/04 04:37:26;;;;;;;9.90;5.30;;;;;;;-1.73;100.00;97550.50;106331;1275;1003590;-67
2023/02/04 04:39:53;;;;;;;8.50;4.40;;;;;;;-1.74;100.00;97554.52;106295;1275;1003693;-70
2023/02/04 04:42:20;;;;;;;11.30;5.00;;;;;;;-1.74;100.00;97559.13;107005;1275;25546;-67
2023/02/04 04:44:48;;;;;;;8.90;4.60;;;;;;;-1.74;100.00;97564.80;106986;1275;25354;-68
2023/02/04 04:47:15;;;;;;;12.10;5.50;;;;;;;-1.75;100.00;97567.30;106900;1275;25411;-68
2023/02/04 04:49:43;;;;;;;9.40;5.40;;;;;;;-1.73;100.00;97568.71;106983;1275;25518;-67
2023/02/04 04:52:11;;;;;;;9.60;4.80;;;;;;;-1.73;100.00;97574.84;107072;1275;25396;-67
2023/02/04 04:54:39;;;;;;;8.10;4.70;;;;;;;-1.72;100.00;97574.81;107033;1275;25284;-68
2023/02/04 04:57:06;;;;;;;9.90;5.00;;;;;;;-1.71;100.00;97574.50;107052;1274;25464;-69
2023/02/04 04:59:34;;;;;;;9.20;5.00;;;;;;;-1.69;100.00;97575.56;107073;1275;26846;-68
2023/02/04 05:02:01;;;;;;;17.40;7.50;;;;;;;-1.68;100.00;97577.27;107065;1274;24245;-70
2023/02/04 05:04:28;;;;;;;12.40;6.30;;;;;;;-1.67;100.00;97578.39;107099;1275;25338;-69
2023/02/04 05:06:55;;;;;;;11.30;6.10;;;;;;;-1.66;100.00;97577.71;106967;1274;22541;-68
2023/02/04 05:09:23;;;;;;;11.10;5.80;;;;;;;-1.66;100.00;97581.45;107046;1275;26656;-67
2023/02/04 05:11:50;;;;;;;12.20;5.60;;;;;;;-1.65;100.00;97583.48;106275;1274;1003435;-69
2023/02/04 05:14:18;;;;;;;11.90;6.00;;;;;;;-1.65;100.00;97584.53;106925;1274;25400;-68
2023/02/04 05:16:45;;;;;;;20.50;9.30;;;;;;;-1.65;100.00;97587.19;106283;1274;1003254;-67
2023/02/04 05:19:12;;;;;;;11.80;5.60;;;;;;;-1.65;100.00;97590.59;106975;1275;25344;-67
2023/02/04 05:21:40;;;;;;;12.00;5.50;;;;;;;-1.67;100.00;97587.56;106954;1275;26618;-68
2023/02/04 05:24:07;;;;;;;12.70;5.60;;;;;;;-1.67;100.00;97591.23;106190;1274;1003759;-66
2023/02/04 05:26:35;;;;;;;15.90;7.30;;;;;;;-1.67;100.00;97587.17;106733;1275;25406;-67
2023/02/04 05:29:02;;;;;;;10.20;5.50;;;;;;;-1.65;100.00;97590.23;107003;1275;25242;-69
2023/02/04 05:31:30;;;;;;;13.10;5.50;;;;;;;-1.65;100.00;97588.41;107000;1275;25337;-68
2023/02/04 05:33:59;;;;;;;16.80;7.60;;;;;;;-1.64;100.00;97591.70;107055;1275;25392;-67
2023/02/04 05:36:26;;;;;;;12.70;6.30;;;;;;;-1.64;100.00;97590.05;107015;1274;25306;-69
2023/02/04 05:38:54;;;;;;;11.20;6.10;;;;;;;-1.64;100.00;97587.04;106985;1274;23894;-67
2023/02/04 05:41:22;;;;;;;16.10;6.90;;;;;;;-1.64;100.00;97586.16;107066;1274;25347;-68
2023/02/04 05:43:49;;;;;;;8.80;4.80;;;;;;;-1.64;100.00;97590.41;106916;1275;1003042;-69
2023/02/04 05:46:17;;;;;;;12.80;6.30;;;;;;;-1.63;100.00;97593.67;107814;1275;1003269;-67
2023/02/04 05:48:44;;;;;;;13.10;6.30;;;;;;;-1.61;100.00;97597.77;106369;1275;1002560;-67
2023/02/04 05:51:11;;;;;;;9.90;5.20;;;;;;;-1.60;100.00;97597.09;107069;1274;26693;-67
2023/02/04 05:53:39;;;;;;;9.80;5.20;;;;;;;-1.59;100.00;97597.38;107070;1275;25376;-68
2023/02/04 05:56:06;;;;;;;9.00;4.90;;;;;;;-1.58;100.00;97595.29;107001;1275;25256;-68
2023/02/04 05:58:34;;;;;;;10.80;5.60;;;;;;;-1.56;100.00;97597.73;106196;1275;1003747;-68
2023/02/04 06:01:02;;;;;;;10.30;5.30;;;;;;;-1.54;100.00;97596.34;106953;1275;25347;-67
2023/02/04 06:03:29;;;;;;;8.80;4.70;;;;;;;-1.54;100.00;97592.97;106964;1275;25427;-68
2023/02/04 06:05:58;;;;;;;9.20;4.80;;;;;;;-1.53;100.00;97595.52;106939;1275;25434;-68
2023/02/04 06:08:25;;;;;;;12.50;6.00;;;;;;;-1.51;100.00;97593.77;106779;1275;25390;-68
2023/02/04 06:10:53;;;;;;;18.10;7.60;;;;;;;-1.52;100.00;97595.57;106993;1274;25434;-67
2023/02/04 06:40:11;;;;;;;13.20;6.30;;;;;;;-1.40;100.00;97114.65;104348;1296;557559;-66
2023/02/04 06:42:40;;;;;;;10.70;5.40;;;;;;;-1.29;100.00;97107.11;105778;1286;215690;-66
2023/02/04 06:45:09;;;;;;;8.50;4.70;;;;;;;-1.26;100.00;97162.77;106271;1286;25432;-66
2023/02/04 06:47:37;;;;;;;10.30;5.30;;;;;;;-1.28;100.00;97183.88;106328;1286;22553;-66
2023/02/04 06:50:07;;;;;;;10.60;5.20;;;;;;;-1.30;100.00;97200.69;106315;1286;25265;-64
2023/02/04 06:52:36;;;;;;;8.70;4.70;;;;;;;-1.31;100.00;97209.66;105573;1286;1002871;-64
2023/02/04 06:55:05;;;;;;;10.10;5.30;;;;;;;-1.33;100.00;97220.73;106061;1285;25571;-65
2023/02/04 06:57:34;;;;;;;12.00;5.80;;;;;;;-1.34;100.00;97226.50;105913;1287;1003861;-67
2023/02/04 07:00:04;;;;;;;9.90;5.20;;;;;;;-1.33;100.00;97236.27;106264;1287;25328;-66
2023/02/04 07:02:34;;;;;;;10.80;5.70;;;;;;;-1.30;100.00;97240.79;106228;1287;24388;-64
2023/02/04 07:05:03;;;;;;;11.90;5.60;;;;;;;-1.31;100.00;97250.40;105958;1287;24234;-67
2023/02/04 07:07:31;;;;;;;12.60;5.60;;;;;;;-1.33;100.00;97256.33;105981;1287;22542;-68
2023/02/04 07:10:00;;;;;;;12.10;5.70;;;;;;;-1.32;100.00;97265.40;106066;1287;25271;-70
2023/02/04 07:12:30;;;;;;;14.00;5.80;;;;;;;-1.35;100.00;97271.27;106220;1287;24308;-67
2023/02/04 07:14:58;;;;;;;13.40;6.30;;;;;;;-1.37;100.00;97282.46;105515;1287;1003776;-68
2023/02/04 07:17:27;;;;;;;12.30;5.50;;;;;;;-1.39;100.00;97295.38;105616;1287;1002899;-67
2023/02/04 07:19:55;;;;;;;15.90;6.60;;;;;;;-1.38;100.00;97301.20;106182;1287;24215;-67
2023/02/04 07:22:24;;;;;;;14.60;5.80;;;;;;;-1.38;100.00;97312.50;107997;1287;25316;-68
2023/02/04 07:24:53;;;;;;;18.90;6.90;;;;;;;-1.37;100.00;97318.75;106232;1287;25310;-68
2023/02/04 07:27:21;;;;;;;14.00;6.00;;;;;;;-1.35;100.00;97323.63;106238;1287;26525;-68
2023/02/04 07:29:50;;;;;;;14.50;6.40;;;;;;;-1.31;100.00;97328.34;106261;1284;25268;-69
2023/02/04 07:32:19;;;;;;;11.30;5.70;;;;;;;-1.28;100.00;97331.59;106305;1284;26560;-70
2023/02/04 07:34:48;;;;;;;18.90;8.10;;;;;;;-1.25;100.00;97335.91;106310;1284;25322;-70
2023/02/04 07:37:19;;;;;;;11.50;6.20;;;;;;;-1.22;100.00;97335.51;106403;1284;22532;-70
2023/02/04 07:39:47;;;;;;;14.30;6.60;;;;;;;-1.20;100.00;97340.27;105594;1284;1003410;-71
2023/02/04 07:42:16;;;;;;;16.20;7.50;;;;;;;-1.19;100.00;97344.21;106304;1284;22533;-71
2023/02/04 07:44:50;;;;;;;16.60;7.60;;;;;;;-1.19;100.00;97352.23;106352;1284;22559;-71
2023/02/04 07:47:19;;;;;;;15.30;7.00;;;;;;;-1.19;100.00;97363.14;106316;1284;26513;-69
2023/02/04 07:49:48;;;;;;;26.00;11.70;;;;;;;-1.18;100.00;97371.32;106374;1284;25240;-72
2023/02/04 07:52:16;;;;;;;20.60;8.40;;;;;;;-1.17;100.00;97379.05;105584;1284;1003507;-71
2023/02/04 07:54:44;;;;;;;15.80;6.90;;;;;;;-1.17;100.00;97388.70;106350;1284;24281;-71
2023/02/04 07:57:13;;;;;;;16.80;7.70;;;;;;;-1.17;100.00;97396.37;106450;1284;22532;-68
2023/02/04 07:59:41;;;;;;;12.60;6.20;;;;;;;-1.19;100.00;97411.00;106321;1284;22541;-69
2023/02/04 08:02:11;;;;;;;16.30;6.90;;;;;;;-1.22;100.00;97423.79;106086;1279;1003822;-70
2023/02/04 08:04:41;;;;;;;11.50;6.30;;;;;;;-1.25;100.00;97435.33;106048;1279;1003309;-73
2023/02/04 08:07:09;;;;;;;17.90;7.80;;;;;;;-1.24;100.00;97445.34;106959;1275;25441;-69
2023/02/04 08:09:38;;;;;;;13.90;6.80;;;;;;;-1.23;100.00;97459.16;107022;1275;24285;-69
2023/02/04 08:12:06;;;;;;;15.10;7.20;;;;;;;-1.24;100.00;97469.15;107044;1275;25303;-70
2023/02/04 08:14:36;;;;;;;15.60;7.10;;;;;;;-1.24;100.00;97478.58;107104;1275;25419;-69
2023/02/04 08:17:04;;;;;;;12.00;6.90;;;;;;;-1.24;100.00;97492.41;107033;1275;25354;-69
2023/02/04 08:19:34;;;;;;;15.00;7.10;;;;;;;-1.26;100.00;97503.54;106337;1275;1002904;-70
2023/02/04 08:22:03;;;;;;;11.20;5.80;;;;;;;-1.27;100.00;97513.34;107050;1275;25259;-69
2023/02/04 08:24:32;;;;;;;9.80;5.00;;;;;;;-1.29;100.00;97531.27;107017;1275;25447;-68
2023/02/04 08:27:01;;;;;;;19.20;8.70;;;;;;;-1.30;100.00;97543.63;107132;1275;26503;-68
2023/02/04 08:29:30;;;;;;;11.70;5.70;;;;;;;-1.31;100.00;97559.01;106356;1275;1002431;-71
2023/02/04 08:31:58;;;;;;;12.10;6.30;;;;;;;-1.30;100.00;97570.96;106219;1275;1003422;-73
2023/02/04 08:34:28;;;;;;;13.90;6.50;;;;;;;-1.31;100.00;97580.94;107022;1269;25429;-72
2023/02/04 08:36:56;;;;;;;9.30;5.60;;;;;;;-1.36;100.00;97588.98;106964;1276;25482;-71
2023/02/04 08:39:25;;;;;;;10.10;5.30;;;;;;;-1.38;100.00;97599.27;106908;1276;23389;-71
2023/02/04 08:41:54;;;;;;;12.10;5.70;;;;;;;-1.39;100.00;97609.31;106944;1272;26519;-71
2023/02/04 08:44:23;;;;;;;13.20;6.30;;;;;;;-1.41;100.00;97620.27;106914;1269;25559;-72
2023/02/04 08:46:52;;;;;;;12.90;6.60;;;;;;;-1.42;100.00;97630.16;106406;1270;1003060;-73
2023/02/04 08:49:22;;;;;;;9.60;5.20;;;;;;;-1.43;100.00;97639.41;107012;1268;22530;-70
2023/02/04 08:51:54;;;;;;;9.20;5.10;;;;;;;-1.44;100.00;97651.02;106874;1270;24230;-71
2023/02/04 08:54:29;;;;;;;14.90;8.00;;;;;;;-1.48;100.00;97657.75;106896;1272;24736;-70
2023/02/04 08:57:03;;;;;;;20.00;11.30;;;;;;;-1.49;100.00;97659.83;106726;1272;22526;-69
2023/02/04 08:59:32;;;;;;;22.60;13.00;;;;;;;-1.50;100.00;97672.09;106137;1269;1003141;-69
2023/02/04 09:02:03;;;;;;;20.10;10.00;;;;;;;-1.50;100.00;97678.08;106847;1270;22517;-71
2023/02/04 09:04:34;;;;;;;12.20;6.50;;;;;;;-1.48;100.00;97686.27;105946;1268;1003290;-69
2023/02/04 09:07:03;;;;;;;10.90;5.90;;;;;;;-1.49;100.00;97690.67;106181;1268;1003540;-71
2023/02/04 09:09:33;;;;;;;8.60;5.20;;;;;;;-1.50;100.00;97699.81;106848;1269;22624;-71
2023/02/04 09:12:02;;;;;;;11.10;5.10;;;;;;;-1.48;100.00;97705.70;106953;1275;25230;-70
2023/02/04 09:14:32;;;;;;;12.10;5.40;;;;;;;-1.48;100.00;97718.42;106932;1275;25307;-71
2023/02/04 09:17:00;;;;;;;7.80;4.60;;;;;;;-1.48;100.00;97729.66;106963;1275;26226;-71
2023/02/04 09:19:29;;;;;;;10.70;5.40;;;;;;;-1.48;100.00;97736.02;106975;1275;25370;-71
2023/02/04 09:21:58;;;;;;;10.60;5.20;;;;;;;-1.49;100.00;97743.92;106600;1269;25363;-71
2023/02/04 09:24:27;;;;;;;8.90;5.50;;;;;;;-1.46;100.00;97750.48;106838;1275;26522;-72
2023/02/04 09:26:55;;;;;;;7.70;4.50;;;;;;;-1.44;100.00;97755.63;106768;1272;26503;-72
2023/02/04 09:29:24;;;;;;;11.70;5.60;;;;;;;-1.41;100.00;97765.59;107042;1270;25375;-72
2023/02/04 09:31:53;;;;;;;8.30;4.70;;;;;;;-1.38;100.00;97764.91;106868;1275;25297;-72
2023/02/04 09:34:23;;;;;;;9.90;5.20;;;;;;;-1.36;100.00;97773.91;106230;1275;1003713;-67
2023/02/04 09:36:51;;;;;;;9.40;4.80;;;;;;;-1.35;100.00;97778.73;107179;1276;22524;-68
2023/02/04 09:39:20;;;;;;;11.20;5.60;;;;;;;-1.27;100.00;97778.31;107136;1275;25428;-67
2023/02/04 09:41:48;;;;;;;8.80;4.90;;;;;;;-1.23;100.00;97783.04;106149;1275;1003346;-67
2023/02/04 09:44:18;;;;;;;10.10;5.20;;;;;;;-1.25;100.00;97784.81;105996;1268;1002866;-67
2023/02/04 09:46:52;;;;;;;9.50;5.10;;;;;;;-1.29;100.00;97793.78;106853;1269;25251;-67
2023/02/04 09:49:21;;;;;;;8.20;4.80;;;;;;;-1.30;100.00;97805.22;106138;1269;1003120;-72
2023/02/04 09:51:49;;;;;;;14.70;7.30;;;;;;;-1.29;100.00;97819.73;106903;1269;25448;-67
2023/02/04 09:54:19;;;;;;;39.70;11.10;;;;;;;-1.25;100.00;97829.29;106773;1269;24228;-73
2023/02/04 09:56:51;;;;;;;11.70;6.00;;;;;;;-1.23;100.00;97839.86;107129;1268;25258;-75
2023/02/04 09:59:21;;;;;;;8.10;5.10;;;;;;;-1.21;100.00;97842.09;106751;1269;1003083;-72
2023/02/04 10:01:54;;;;;;;12.90;5.50;;;;;;;-1.20;100.00;97848.14;107580;1268;26689;-73
2023/02/04 10:04:23;;;;;;;13.80;6.00;;;;;;;-1.20;100.00;97856.85;106680;1275;1003450;-67
2023/02/04 10:06:52;;;;;;;12.90;5.30;;;;;;;-1.16;100.00;97862.44;107228;1269;25290;-68
2023/02/04 10:09:21;;;;;;;9.50;4.30;;;;;;;-1.09;100.00;97860.20;107053;1275;25475;-66
2023/02/04 10:11:51;;;;;;;16.60;5.60;;;;;;;-1.06;100.00;97865.97;107106;1270;25240;-68
2023/02/04 10:27:54;;;;;;;7.80;5.10;;;;;;;-0.60;100.00;97741.59;104776;1295;557569;-70
2023/02/04 10:30:25;;;;;;;8.00;4.40;;;;;;;-0.48;100.00;97741.77;105914;1287;292420;-71
2023/02/04 10:32:54;;;;;;;17.00;6.90;;;;;;;-0.52;100.00;97810.45;106183;1287;24770;-70
2023/02/04 10:35:23;;;;;;;8.60;5.00;;;;;;;-0.56;100.00;97850.01;106307;1287;25446;-72
2023/02/04 10:38:04;;;;;;;13.60;6.60;;;;;;;-0.64;100.00;97877.52;106575;1279;22722;-71
2023/02/04 10:40:34;;;;;;;10.10;5.30;;;;;;;-0.66;100.00;97897.38;106454;1279;25455;-69
2023/02/04 10:43:10;;;;;;;9.30;5.00;;;;;;;-0.62;100.00;97922.23;105587;1280;1002946;-71
2023/02/04 10:45:39;;;;;;;9.90;5.30;;;;;;;-0.58;100.00;97930.72;105591;1279;1002938;-72
2023/02/04 10:48:15;;;;;;;12.30;6.40;;;;;;;-0.57;100.00;97952.04;106521;1282;25450;-73
2023/02/04 10:50:45;;;;;;;11.10;5.70;;;;;;;-0.55;100.00;97965.88;106605;1267;22761;-73
2023/02/04 10:56:17;;;;;;;15.40;7.50;;;;;;;-0.56;100.00;97985.92;106331;1285;25424;-71
2023/02/04 10:58:46;;;;;;;19.60;10.10;;;;;;;-0.56;100.00;98004.55;105367;1282;1003192;-71
2023/02/04 11:01:16;;;;;;;15.00;8.00;;;;;;;-0.57;100.00;98015.08;106169;1282;22669;-71
2023/02/04 11:03:45;;;;;;;22.80;12.00;;;;;;;-0.54;100.00;98017.79;106187;1280;24211;-74
2023/02/04 11:06:21;;;;;;;17.00;8.70;;;;;;;-0.52;100.00;98025.55;106015;1283;22670;-71
2023/02/04 11:08:52;;;;;;;15.10;7.90;;;;;;;-0.49;100.00;98026.11;106105;1279;23940;-72
2023/02/04 11:11:24;;;;;;;15.10;8.40;;;;;;;-0.49;100.00;98039.42;105407;1282;1005605;-72
2023/02/04 11:13:53;;;;;;;14.70;8.40;;;;;;;-0.53;100.00;98047.44;106112;1288;22511;-70
2023/02/04 11:16:30;;;;;;;15.30;7.90;;;;;;;-0.56;100.00;98062.22;105676;1284;1003013;-71
2023/02/04 11:18:59;;;;;;;15.20;7.50;;;;;;;-0.55;100.00;98067.58;106454;1284;22532;-72
2023/02/04 11:21:31;;;;;;;13.70;7.80;;;;;;;-0.51;100.00;98079.64;106668;1284;24640;-72
2023/02/04 11:24:10;;;;;;;16.40;7.90;;;;;;;-0.51;100.00;98082.58;106666;1284;25443;-71
2023/02/04 11:26:48;;;;;;;13.10;7.10;;;;;;;-0.53;100.00;98088.34;105941;1284;1002861;-71
2023/02/04 11:29:37;;;;;;;11.30;6.60;;;;;;;-0.58;100.00;98097.83;106031;1284;1003046;-74
2023/02/04 11:32:27;;;;;;;14.10;7.70;;;;;;;-0.62;100.00;98107.70;107180;1279;24202;-73
2023/02/04 11:35:26;;;;;;;19.30;10.00;;;;;;;-0.62;100.00;98116.07;107105;1284;22553;-72
2023/02/04 11:37:55;;;;;;;12.70;6.50;;;;;;;-0.63;100.00;98123.26;107192;1284;26702;-72
2023/02/04 11:40:24;;;;;;;13.20;6.50;;;;;;;-0.68;100.00;98151.63;106904;1284;26645;-72
2023/02/04 11:43:09;;;;;;;9.40;5.20;;;;;;;-0.71;100.00;98165.45;107134;1284;23775;-73
2023/02/04 11:45:38;;;;;;;9.30;6.10;;;;;;;-0.77;100.00;98176.56;106313;1284;1003836;-72
2023/02/04 11:48:12;;;;;;;10.10;6.20;;;;;;;-0.79;100.00;98194.58;106300;1284;1002329;-73
2023/02/04 11:50:41;;;;;;;10.50;6.00;;;;;;;-0.79;100.00;98203.48;107087;1284;25417;-73
2023/02/04 11:53:12;;;;;;;9.30;5.30;;;;;;;-0.81;100.00;98216.60;107429;1284;25284;-72
2023/02/04 11:55:45;;;;;;;12.20;6.20;;;;;;;-0.83;100.00;98227.23;106985;1284;23906;-72
2023/02/04 11:58:17;;;;;;;19.40;9.90;;;;;;;-0.84;100.00;98234.05;106424;1279;1003101;-74